Terminal Aerodrome Forecast
Issued by NWS

Home | Current Version | Previous Version | Text Only | Print | Product List | Glossary On
Versions: 1 2 3 4 5 6 7 8 9 10 11 12 13 14 15 16 17 18 19
000
FTUS45 KRIW 241700
TAFCPR
TAF
KCPR 241720Z 2418/2518 03008KT P6SM SCT015 OVC030
      TEMPO 2418/2422 4SM -RA BR OVC015
     FM242200 03011KT 5SM -SHRA VCTS SCT025 BKN040CB
     FM250300 02009KT 6SM -SHRA BR SCT015 OVC025
     FM251600 23010KT P6SM SCT025 BKN050=

USA.gov is the U.S. government's official web portal to all federal, state and local government web resources and services.